Time;durP1;ratioP1;P1;durP2;ratioP2;P2;SDS_P1;SDS_P2;PMS_P1;PMS_P2;Temp;Humidity;BMP_temperature;BMP_pressure;BME280_temperature;BME280_humidity;BME280_pressure;Samples;Min_cycle;Max_cycle;Signal;HPM_P1;HPM_P2
2023/06/28 00:01:56;;;;;;;7.93;2.95;;;;;;;;;;5056033;28;20596;-65
2023/06/28 00:04:25;;;;;;;9.00;3.65;;;;;;;;;;5056195;28;20029;-65
2023/06/28 00:06:52;;;;;;;7.85;3.53;;;;;;;;;;5055796;28;20478;-65
2023/06/28 00:09:27;;;;;;;7.72;3.78;;;;;;;;;;5055900;28;20078;-65
2023/06/28 00:11:55;;;;;;;6.05;3.33;;;;;;;;;;5055804;28;20052;-66
2023/06/28 00:14:23;;;;;;;8.25;3.70;;;;;;;;;;5055780;28;20057;-66
2023/06/28 00:16:49;;;;;;;10.13;3.78;;;;;;;;;;5055990;28;20506;-65
2023/06/28 00:19:17;;;;;;;10.90;4.07;;;;;;;;;;5055713;28;20036;-66
2023/06/28 00:21:43;;;;;;;10.35;5.32;;;;;;;;;;5055832;28;20025;-66
2023/06/28 00:24:09;;;;;;;12.85;5.63;;;;;;;;;;5055780;28;20100;-66
2023/06/28 00:26:35;;;;;;;11.45;5.30;;;;;;;;;;5055404;28;20079;-66
2023/06/28 00:29:01;;;;;;;7.65;4.97;;;;;;;;;;5055606;28;20091;-66
2023/06/28 00:31:27;;;;;;;7.10;3.72;;;;;;;;;;5055448;28;20032;-66
2023/06/28 00:33:53;;;;;;;8.60;4.18;;;;;;;;;;5055589;28;20480;-66
2023/06/28 00:36:19;;;;;;;5.15;3.35;;;;;;;;;;5055584;28;20475;-66
2023/06/28 00:38:45;;;;;;;8.38;3.67;;;;;;;;;;5055328;28;20392;-66
2023/06/28 00:41:11;;;;;;;6.05;3.63;;;;;;;;;;5055483;28;20138;-66
2023/06/28 00:43:37;;;;;;;8.75;3.58;;;;;;;;;;5054983;28;20029;-66
2023/06/28 00:46:02;;;;;;;6.60;3.78;;;;;;;;;;5054656;28;20045;-66
2023/06/28 00:48:29;;;;;;;7.18;3.97;;;;;;;;;;5055086;28;20032;-66
2023/06/28 00:50:55;;;;;;;7.55;3.92;;;;;;;;;;5054956;28;20068;-66
2023/06/28 00:53:21;;;;;;;8.38;3.85;;;;;;;;;;5055032;28;20033;-66
2023/06/28 00:55:47;;;;;;;7.18;4.43;;;;;;;;;;5055063;28;20024;-66
2023/06/28 00:58:13;;;;;;;6.10;3.60;;;;;;;;;;5055191;28;20071;-66
2023/06/28 01:00:39;;;;;;;7.32;4.25;;;;;;;;;;5054961;28;20100;-66
2023/06/28 01:03:05;;;;;;;5.35;4.13;;;;;;;;;;5055175;28;20021;-66
2023/06/28 01:05:32;;;;;;;5.45;3.85;;;;;;;;;;5054713;28;20441;-66
2023/06/28 01:07:58;;;;;;;8.18;4.90;;;;;;;;;;5054774;28;20025;-66
2023/06/28 01:10:24;;;;;;;9.75;5.82;;;;;;;;;;5054731;28;20070;-66
2023/06/28 01:12:50;;;;;;;8.55;5.40;;;;;;;;;;5054644;28;20426;-66
2023/06/28 01:15:17;;;;;;;8.68;4.82;;;;;;;;;;5054567;28;20037;-66
2023/06/28 01:17:43;;;;;;;8.15;6.07;;;;;;;;;;5054530;28;20025;-66
2023/06/28 01:20:09;;;;;;;12.23;5.63;;;;;;;;;;5054605;28;20455;-66
2023/06/28 01:22:36;;;;;;;11.60;5.28;;;;;;;;;;5054379;28;20025;-66
2023/06/28 01:25:02;;;;;;;12.90;5.75;;;;;;;;;;5054166;28;20036;-66
2023/06/28 01:27:28;;;;;;;8.38;5.43;;;;;;;;;;5054684;28;20025;-66
2023/06/28 01:29:56;;;;;;;10.23;5.75;;;;;;;;;;5054337;28;20035;-66
2023/06/28 01:32:22;;;;;;;9.73;5.80;;;;;;;;;;5054288;28;20025;-66
2023/06/28 01:34:48;;;;;;;9.98;5.95;;;;;;;;;;5054280;28;20028;-66
2023/06/28 01:37:14;;;;;;;10.57;5.45;;;;;;;;;;5054212;28;20075;-66
2023/06/28 01:39:41;;;;;;;8.95;5.45;;;;;;;;;;5054316;28;20060;-66
2023/06/28 01:42:07;;;;;;;8.63;5.13;;;;;;;;;;5054171;28;20104;-66
2023/06/28 01:44:33;;;;;;;7.72;4.88;;;;;;;;;;5053751;28;20131;-66
2023/06/28 01:46:59;;;;;;;9.77;5.00;;;;;;;;;;5053765;28;20112;-66
2023/06/28 01:49:25;;;;;;;8.25;4.63;;;;;;;;;;5054170;28;20021;-66
2023/06/28 01:51:53;;;;;;;9.00;4.78;;;;;;;;;;5053894;28;20082;-66
2023/06/28 01:54:19;;;;;;;7.15;4.28;;;;;;;;;;5054143;28;20033;-66
2023/06/28 01:56:45;;;;;;;7.78;4.82;;;;;;;;;;5054027;28;20025;-66
2023/06/28 01:59:11;;;;;;;6.90;4.18;;;;;;;;;;5053867;28;20035;-66
2023/06/28 02:01:37;;;;;;;8.23;4.05;;;;;;;;;;5053818;28;20497;-66
2023/06/28 02:04:03;;;;;;;5.85;4.07;;;;;;;;;;5053682;28;20025;-66
2023/06/28 02:06:29;;;;;;;8.52;4.10;;;;;;;;;;5053385;28;20390;-66
2023/06/28 02:08:55;;;;;;;8.70;4.30;;;;;;;;;;5053820;28;20479;-66
2023/06/28 02:11:21;;;;;;;7.65;4.75;;;;;;;;;;5053750;28;20025;-66
2023/06/28 02:13:47;;;;;;;9.95;5.13;;;;;;;;;;5053369;28;20025;-66
2023/06/28 02:16:13;;;;;;;6.68;4.07;;;;;;;;;;5053116;28;20061;-66
2023/06/28 02:18:39;;;;;;;12.40;4.70;;;;;;;;;;5053525;28;20024;-66
2023/06/28 02:21:05;;;;;;;7.18;4.38;;;;;;;;;;5053685;28;20390;-66
2023/06/28 02:23:31;;;;;;;8.13;3.70;;;;;;;;;;5053230;28;20021;-66
2023/06/28 02:25:57;;;;;;;5.43;4.13;;;;;;;;;;5053037;28;20398;-66
2023/06/28 02:28:23;;;;;;;7.53;5.07;;;;;;;;;;5053326;28;20021;-66
2023/06/28 02:30:49;;;;;;;10.00;4.93;;;;;;;;;;5053304;28;20424;-66
2023/06/28 02:33:15;;;;;;;8.27;4.60;;;;;;;;;;5053154;28;20024;-66
2023/06/28 02:35:41;;;;;;;5.43;4.10;;;;;;;;;;5053134;28;20029;-66
2023/06/28 02:38:07;;;;;;;5.55;4.32;;;;;;;;;;5053267;28;20035;-66
2023/06/28 02:40:34;;;;;;;8.25;4.88;;;;;;;;;;5053199;28;20494;-66
2023/06/28 02:43:00;;;;;;;7.75;4.45;;;;;;;;;;5053074;28;20025;-66
2023/06/28 02:45:26;;;;;;;8.05;4.47;;;;;;;;;;5052931;28;20048;-66
2023/06/28 02:47:52;;;;;;;6.63;4.43;;;;;;;;;;5053112;28;20025;-66
2023/06/28 02:50:18;;;;;;;11.18;5.00;;;;;;;;;;5053276;28;20158;-66
2023/06/28 02:52:44;;;;;;;6.88;4.88;;;;;;;;;;5052945;28;20059;-66
2023/06/28 02:55:10;;;;;;;7.47;5.22;;;;;;;;;;5053239;28;20021;-66
2023/06/28 02:57:37;;;;;;;7.63;5.15;;;;;;;;;;5053328;28;20036;-65
2023/06/28 03:00:03;;;;;;;8.45;5.38;;;;;;;;;;5052981;28;20498;-65
2023/06/28 03:02:29;;;;;;;5.75;4.38;;;;;;;;;;5052960;28;20437;-65
2023/06/28 03:04:55;;;;;;;7.65;5.13;;;;;;;;;;5053117;28;20100;-65
2023/06/28 03:07:21;;;;;;;13.52;6.32;;;;;;;;;;5052844;28;20025;-65
2023/06/28 03:09:47;;;;;;;10.88;6.18;;;;;;;;;;5052720;28;20025;-65
2023/06/28 03:12:13;;;;;;;8.68;5.22;;;;;;;;;;5053090;28;20045;-65
2023/06/28 03:14:39;;;;;;;9.60;6.70;;;;;;;;;;5053071;28;20047;-65
2023/06/28 03:17:05;;;;;;;9.77;6.43;;;;;;;;;;5052736;28;20032;-65
2023/06/28 03:19:31;;;;;;;6.88;5.53;;;;;;;;;;5052807;28;20025;-65
2023/06/28 03:21:57;;;;;;;12.68;6.15;;;;;;;;;;5052874;28;20021;-65
2023/06/28 03:24:23;;;;;;;9.90;5.75;;;;;;;;;;5052712;28;20083;-65
2023/06/28 03:26:49;;;;;;;8.43;5.47;;;;;;;;;;5052648;28;20040;-65
2023/06/28 03:29:15;;;;;;;9.45;6.15;;;;;;;;;;5056592;28;20032;-65
2023/06/28 03:31:41;;;;;;;11.65;6.22;;;;;;;;;;5056345;28;20032;-65
2023/06/28 03:34:07;;;;;;;8.23;6.50;;;;;;;;;;5056722;28;20031;-65
2023/06/28 03:36:34;;;;;;;11.80;6.75;;;;;;;;;;5056593;28;20029;-65
2023/06/28 03:39:00;;;;;;;9.90;7.20;;;;;;;;;;5056452;28;20109;-66
2023/06/28 03:41:27;;;;;;;11.10;7.85;;;;;;;;;;5056314;28;20078;-66
2023/06/28 03:43:53;;;;;;;11.88;7.75;;;;;;;;;;5056572;28;20044;-66
2023/06/28 03:46:19;;;;;;;11.13;6.75;;;;;;;;;;5056047;28;20060;-66
2023/06/28 03:48:45;;;;;;;6.90;5.43;;;;;;;;;;5056351;28;20111;-66
2023/06/28 03:51:11;;;;;;;8.68;5.82;;;;;;;;;;5056244;28;20035;-66
2023/06/28 03:53:37;;;;;;;10.02;7.45;;;;;;;;;;5056199;28;20033;-66
2023/06/28 03:56:03;;;;;;;10.25;6.97;;;;;;;;;;5056107;28;20494;-66
2023/06/28 03:58:29;;;;;;;12.20;6.88;;;;;;;;;;5056322;28;20033;-66
2023/06/28 04:00:55;;;;;;;9.02;6.85;;;;;;;;;;5056246;28;20032;-66
2023/06/28 04:03:21;;;;;;;14.07;8.02;;;;;;;;;;5056247;28;20037;-66
2023/06/28 04:05:47;;;;;;;13.93;7.57;;;;;;;;;;5055938;28;20040;-66
2023/06/28 04:08:14;;;;;;;10.88;7.20;;;;;;;;;;5056026;28;20033;-66
2023/06/28 04:10:40;;;;;;;11.55;7.75;;;;;;;;;;5055861;28;20364;-66
2023/06/28 04:13:06;;;;;;;11.07;7.22;;;;;;;;;;5055902;28;20032;-66
2023/06/28 04:15:32;;;;;;;11.45;6.95;;;;;;;;;;5055717;28;20025;-66
2023/06/28 04:17:58;;;;;;;8.00;6.57;;;;;;;;;;5055689;28;20043;-66
2023/06/28 04:20:24;;;;;;;9.82;6.03;;;;;;;;;;5055701;28;20478;-66
2023/06/28 04:22:50;;;;;;;15.65;6.43;;;;;;;;;;5055740;28;20033;-66
2023/06/28 04:25:16;;;;;;;12.20;7.22;;;;;;;;;;5055541;28;20033;-66
2023/06/28 04:27:42;;;;;;;11.88;7.20;;;;;;;;;;5055473;28;20039;-66
2023/06/28 04:30:08;;;;;;;11.60;6.82;;;;;;;;;;5055481;28;20030;-66
2023/06/28 04:32:34;;;;;;;10.73;7.10;;;;;;;;;;5055642;28;20036;-66
2023/06/28 04:35:01;;;;;;;12.65;6.70;;;;;;;;;;5055244;28;20471;-66
2023/06/28 04:37:27;;;;;;;9.50;6.30;;;;;;;;;;5055333;28;20028;-66
2023/06/28 04:39:54;;;;;;;11.13;5.40;;;;;;;;;;5053966;28;20068;-66
2023/06/28 04:42:20;;;;;;;12.65;6.22;;;;;;;;;;5055315;28;20033;-66
2023/06/28 04:44:47;;;;;;;10.57;6.45;;;;;;;;;;5055191;28;20128;-66
2023/06/28 04:47:15;;;;;;;12.82;7.00;;;;;;;;;;5055123;28;20035;-66
2023/06/28 04:49:43;;;;;;;12.68;7.20;;;;;;;;;;5055237;28;20100;-66
2023/06/28 04:52:12;;;;;;;12.55;6.97;;;;;;;;;;5055188;28;20390;-66
2023/06/28 04:54:38;;;;;;;13.00;6.90;;;;;;;;;;5054943;28;20021;-66
2023/06/28 04:57:04;;;;;;;11.73;7.28;;;;;;;;;;5054990;28;20037;-66
2023/06/28 04:59:30;;;;;;;12.63;6.68;;;;;;;;;;5054958;28;20025;-66
2023/06/28 05:01:56;;;;;;;12.88;6.78;;;;;;;;;;5054907;28;20035;-66
2023/06/28 05:04:22;;;;;;;13.65;7.60;;;;;;;;;;5055097;28;20033;-66
2023/06/28 05:06:51;;;;;;;16.95;7.78;;;;;;;;;;5054748;28;20039;-65
2023/06/28 05:09:18;;;;;;;12.15;7.50;;;;;;;;;;5054834;28;20031;-66
2023/06/28 05:11:44;;;;;;;11.93;7.32;;;;;;;;;;5054698;28;20386;-66
2023/06/28 05:14:10;;;;;;;12.15;7.10;;;;;;;;;;5054669;28;20100;-66
2023/06/28 05:16:36;;;;;;;12.20;7.13;;;;;;;;;;5054675;28;20120;-66
2023/06/28 05:19:02;;;;;;;14.35;7.10;;;;;;;;;;5054511;28;20028;-66
2023/06/28 05:21:28;;;;;;;12.50;7.90;;;;;;;;;;5054756;28;20036;-66
2023/06/28 05:23:54;;;;;;;11.13;7.25;;;;;;;;;;5054585;28;20393;-66
2023/06/28 05:26:20;;;;;;;13.60;7.72;;;;;;;;;;5054495;28;20033;-66
2023/06/28 05:28:46;;;;;;;20.80;7.63;;;;;;;;;;5054423;28;20029;-66
2023/06/28 05:31:12;;;;;;;14.40;8.20;;;;;;;;;;5054450;28;20029;-66
2023/06/28 05:33:40;;;;;;;18.05;8.05;;;;;;;;;;5054374;28;20017;-66
2023/06/28 05:36:06;;;;;;;19.27;7.68;;;;;;;;;;5054432;28;20036;-66
2023/06/28 05:38:32;;;;;;;14.38;7.57;;;;;;;;;;5054374;28;20028;-66
2023/06/28 05:41:11;;;;;;;10.90;7.57;;;;;;;;;;5054281;28;20036;-66
2023/06/28 05:43:37;;;;;;;10.80;7.45;;;;;;;;;;5054030;28;20486;-66
2023/06/28 05:46:03;;;;;;;15.55;7.78;;;;;;;;;;5053602;28;20036;-66
2023/06/28 05:48:31;;;;;;;16.65;7.72;;;;;;;;;;5054178;28;20099;-65
2023/06/28 05:50:57;;;;;;;20.58;7.13;;;;;;;;;;5053388;28;20033;-65
2023/06/28 05:53:22;;;;;;;16.55;7.38;;;;;;;;;;5054101;28;20078;-65
2023/06/28 05:55:48;;;;;;;16.88;7.07;;;;;;;;;;5053821;28;20040;-65
2023/06/28 05:58:14;;;;;;;21.27;7.00;;;;;;;;;;5053288;28;20029;-66
2023/06/28 06:00:41;;;;;;;15.43;6.47;;;;;;;;;;5053932;28;20033;-65
2023/06/28 06:03:07;;;;;;;16.75;6.45;;;;;;;;;;5053561;28;20544;-65
2023/06/28 06:05:33;;;;;;;18.40;7.20;;;;;;;;;;5053358;28;20028;-66
2023/06/28 06:07:59;;;;;;;15.48;8.27;;;;;;;;;;5053414;28;20032;-66
2023/06/28 06:10:25;;;;;;;17.38;6.25;;;;;;;;;;5053219;28;20024;-66
2023/06/28 06:12:53;;;;;;;17.30;6.70;;;;;;;;;;5047370;28;20028;-66
2023/06/28 06:15:19;;;;;;;18.95;7.53;;;;;;;;;;5053532;28;20120;-66
2023/06/28 06:17:46;;;;;;;25.92;10.65;;;;;;;;;;5049626;28;20175;-67
2023/06/28 06:20:15;;;;;;;25.25;10.45;;;;;;;;;;5053142;28;20024;-68
2023/06/28 06:22:41;;;;;;;18.38;8.30;;;;;;;;;;5052800;28;20059;-67
2023/06/28 06:25:07;;;;;;;19.38;7.53;;;;;;;;;;5050705;28;20098;-67
2023/06/28 06:27:33;;;;;;;17.48;6.80;;;;;;;;;;5051447;28;20945;-67
2023/06/28 06:29:59;;;;;;;13.52;6.03;;;;;;;;;;5051327;28;20036;-67
2023/06/28 06:32:25;;;;;;;11.45;5.47;;;;;;;;;;5047958;28;20029;-67
2023/06/28 06:34:51;;;;;;;11.45;5.35;;;;;;;;;;5052483;28;20099;-67
2023/06/28 06:37:17;;;;;;;15.63;5.10;;;;;;;;;;5053041;28;20096;-68
2023/06/28 06:39:43;;;;;;;16.33;5.43;;;;;;;;;;5051844;28;20394;-67
2023/06/28 06:42:09;;;;;;;10.38;5.10;;;;;;;;;;5044872;28;20040;-67
2023/06/28 06:44:35;;;;;;;9.20;5.30;;;;;;;;;;5057333;28;20123;-68
2023/06/28 06:47:01;;;;;;;10.80;5.75;;;;;;;;;;5067939;28;20498;-67
2023/06/28 06:49:27;;;;;;;16.48;5.30;;;;;;;;;;5061410;28;20033;-68
2023/06/28 06:51:53;;;;;;;12.95;5.35;;;;;;;;;;5051339;28;20083;-68
2023/06/28 06:54:19;;;;;;;10.90;5.25;;;;;;;;;;5052533;28;20094;-68
2023/06/28 06:56:45;;;;;;;14.88;4.85;;;;;;;;;;5052901;28;20072;-68
2023/06/28 06:59:11;;;;;;;12.93;4.75;;;;;;;;;;5059534;28;20068;-68
2023/06/28 07:01:37;;;;;;;10.63;4.57;;;;;;;;;;5056912;28;20568;-68
2023/06/28 07:04:03;;;;;;;13.52;5.10;;;;;;;;;;5054607;28;20029;-67
2023/06/28 07:06:29;;;;;;;12.68;4.95;;;;;;;;;;5055841;28;20075;-68
2023/06/28 07:08:57;;;;;;;10.75;5.10;;;;;;;;;;5052664;28;20048;-67
2023/06/28 07:11:23;;;;;;;12.90;5.78;;;;;;;;;;5056998;28;20036;-66
2023/06/28 07:13:49;;;;;;;12.30;4.93;;;;;;;;;;5051091;28;20029;-67
2023/06/28 07:16:15;;;;;;;13.75;5.25;;;;;;;;;;5053965;28;20073;-69
2023/06/28 07:18:41;;;;;;;14.30;5.25;;;;;;;;;;5054195;28;20147;-67
2023/06/28 07:21:07;;;;;;;10.95;4.75;;;;;;;;;;5065146;28;20040;-67
2023/06/28 07:23:33;;;;;;;11.02;4.85;;;;;;;;;;5048754;28;20616;-67
2023/06/28 07:25:59;;;;;;;13.32;4.57;;;;;;;;;;5053491;28;20028;-67
2023/06/28 07:28:25;;;;;;;11.70;5.25;;;;;;;;;;5069091;28;20100;-67
2023/06/28 07:30:53;;;;;;;11.75;5.18;;;;;;;;;;5068398;28;20025;-68
2023/06/28 07:33:20;;;;;;;11.63;5.28;;;;;;;;;;5058531;28;20122;-67
2023/06/28 07:35:46;;;;;;;10.68;4.45;;;;;;;;;;5056466;28;20033;-67
2023/06/28 07:38:12;;;;;;;9.60;4.53;;;;;;;;;;5054701;28;20032;-67
2023/06/28 07:40:38;;;;;;;9.95;5.00;;;;;;;;;;5049127;28;20104;-67
2023/06/28 07:43:04;;;;;;;12.95;5.20;;;;;;;;;;5055305;28;20025;-67
2023/06/28 07:45:30;;;;;;;13.43;4.35;;;;;;;;;;5053395;28;20049;-67
2023/06/28 07:47:57;;;;;;;14.23;5.00;;;;;;;;;;5051324;28;20487;-68
2023/06/28 07:50:23;;;;;;;16.13;4.80;;;;;;;;;;5056004;28;20063;-67
2023/06/28 07:52:50;;;;;;;10.23;4.45;;;;;;;;;;5053342;28;20029;-67
2023/06/28 07:55:16;;;;;;;14.73;4.45;;;;;;;;;;5040449;28;20022;-68
2023/06/28 07:57:42;;;;;;;14.40;5.10;;;;;;;;;;5040552;28;20083;-68
2023/06/28 08:00:10;;;;;;;12.63;3.63;;;;;;;;;;5036211;28;20135;-68
2023/06/28 08:02:35;;;;;;;7.40;3.95;;;;;;;;;;5045700;28;20074;-68
2023/06/28 08:05:01;;;;;;;8.43;3.85;;;;;;;;;;5049843;28;20037;-67
2023/06/28 08:07:28;;;;;;;13.63;4.32;;;;;;;;;;5046192;28;20107;-68
2023/06/28 08:09:54;;;;;;;10.73;3.58;;;;;;;;;;5052904;28;20475;-66
2023/06/28 08:12:20;;;;;;;12.20;4.13;;;;;;;;;;5052445;28;20044;-66
2023/06/28 08:14:46;;;;;;;9.82;3.85;;;;;;;;;;5055107;28;20020;-66
2023/06/28 08:17:12;;;;;;;11.15;4.75;;;;;;;;;;5055742;28;20502;-66
2023/06/28 08:19:38;;;;;;;13.57;5.00;;;;;;;;;;5055658;28;20025;-66
2023/06/28 08:22:04;;;;;;;17.50;4.82;;;;;;;;;;5049297;28;20558;-67
2023/06/28 08:24:30;;;;;;;12.05;4.75;;;;;;;;;;5052237;28;20056;-66
2023/06/28 08:26:56;;;;;;;8.60;4.25;;;;;;;;;;5053581;28;20048;-67
2023/06/28 08:29:22;;;;;;;10.82;4.78;;;;;;;;;;5051673;28;20033;-66
2023/06/28 08:31:49;;;;;;;16.05;5.20;;;;;;;;;;5052440;28;20033;-67
2023/06/28 08:34:16;;;;;;;12.60;4.82;;;;;;;;;;5054087;28;20044;-66
2023/06/28 08:36:42;;;;;;;12.95;4.57;;;;;;;;;;5053718;28;20029;-67
2023/06/28 08:39:08;;;;;;;10.93;4.40;;;;;;;;;;5053351;28;20064;-66
2023/06/28 08:41:35;;;;;;;12.30;4.75;;;;;;;;;;5051153;28;20037;-67
2023/06/28 08:44:02;;;;;;;11.05;4.78;;;;;;;;;;5054069;28;20029;-67
2023/06/28 08:46:29;;;;;;;14.77;4.70;;;;;;;;;;5053641;28;20057;-67
2023/06/28 08:48:55;;;;;;;8.27;4.55;;;;;;;;;;5055063;28;20025;-66
2023/06/28 08:51:21;;;;;;;8.07;4.90;;;;;;;;;;5051770;28;20029;-67
2023/06/28 08:53:48;;;;;;;13.20;5.40;;;;;;;;;;5049848;28;20113;-66
2023/06/28 08:56:15;;;;;;;12.30;5.55;;;;;;;;;;5051921;28;20036;-67
2023/06/28 08:58:41;;;;;;;9.60;5.15;;;;;;;;;;5052312;28;20120;-67
2023/06/28 09:01:09;;;;;;;11.50;5.15;;;;;;;;;;5053515;28;20036;-67
2023/06/28 09:03:37;;;;;;;11.07;5.22;;;;;;;;;;5051786;28;20475;-67
2023/06/28 09:06:03;;;;;;;11.75;4.65;;;;;;;;;;5050900;28;20513;-67
2023/06/28 09:08:30;;;;;;;13.77;5.30;;;;;;;;;;5051581;28;20044;-67
2023/06/28 09:10:56;;;;;;;10.57;5.90;;;;;;;;;;5050072;28;20028;-67
2023/06/28 09:13:22;;;;;;;13.00;6.40;;;;;;;;;;5053135;28;20378;-67
2023/06/28 09:15:48;;;;;;;11.68;6.15;;;;;;;;;;5060371;28;20032;-67
2023/06/28 09:18:15;;;;;;;15.57;7.10;;;;;;;;;;5054719;28;20031;-67
2023/06/28 09:20:48;;;;;;;17.85;6.68;;;;;;;;;;5053604;28;20096;-67
2023/06/28 09:23:14;;;;;;;17.05;5.82;;;;;;;;;;5051411;28;20035;-67
2023/06/28 09:25:42;;;;;;;11.13;4.68;;;;;;;;;;5052349;28;20483;-67
2023/06/28 09:28:08;;;;;;;19.20;5.50;;;;;;;;;;5053364;28;20021;-67
2023/06/28 09:30:36;;;;;;;11.93;5.50;;;;;;;;;;5052545;28;20029;-66
2023/06/28 09:33:04;;;;;;;12.77;4.88;;;;;;;;;;5045790;28;20151;-66
2023/06/28 09:35:30;;;;;;;13.63;4.68;;;;;;;;;;5053345;28;20020;-67
2023/06/28 09:38:00;;;;;;;6.35;3.92;;;;;;;;;;5051843;28;20398;-66
2023/06/28 09:40:26;;;;;;;8.40;3.70;;;;;;;;;;5048473;28;20024;-66
2023/06/28 09:42:52;;;;;;;11.30;4.00;;;;;;;;;;5056748;28;20383;-67
2023/06/28 09:45:27;;;;;;;10.13;4.25;;;;;;;;;;5049002;28;20136;-67
2023/06/28 09:47:55;;;;;;;8.40;3.83;;;;;;;;;;5049307;28;20563;-67
2023/06/28 09:50:21;;;;;;;9.75;4.15;;;;;;;;;;5043280;28;20136;-66
2023/06/28 09:52:48;;;;;;;8.13;3.92;;;;;;;;;;5051673;28;20060;-66
2023/06/28 09:55:15;;;;;;;10.10;4.18;;;;;;;;;;5053790;28;20383;-67
2023/06/28 09:57:42;;;;;;;8.93;3.40;;;;;;;;;;5048144;28;20344;-66
2023/06/28 10:00:09;;;;;;;9.70;3.60;;;;;;;;;;5051773;28;21471;-67
2023/06/28 10:02:36;;;;;;;6.38;3.20;;;;;;;;;;5048958;28;20508;-67
2023/06/28 10:05:03;;;;;;;7.10;3.25;;;;;;;;;;5050709;28;20029;-67
2023/06/28 10:07:29;;;;;;;8.93;3.30;;;;;;;;;;5050513;28;20092;-67
2023/06/28 10:09:55;;;;;;;8.27;3.30;;;;;;;;;;5054995;28;20028;-67
2023/06/28 10:12:25;;;;;;;7.35;3.17;;;;;;;;;;5055823;28;20032;-67
2023/06/28 10:14:56;;;;;;;7.85;3.22;;;;;;;;;;5056417;28;20033;-67
2023/06/28 10:17:22;;;;;;;6.47;2.60;;;;;;;;;;5052423;28;20035;-66
2023/06/28 10:19:49;;;;;;;9.25;2.70;;;;;;;;;;5052852;28;20158;-66
2023/06/28 10:22:15;;;;;;;4.43;2.45;;;;;;;;;;5068509;28;20093;-66
2023/06/28 10:24:42;;;;;;;5.70;2.50;;;;;;;;;;5073197;28;20090;-66
2023/06/28 10:27:09;;;;;;;6.80;2.70;;;;;;;;;;5046932;28;20041;-67
2023/06/28 10:29:35;;;;;;;4.88;2.83;;;;;;;;;;5042215;28;20490;-67
2023/06/28 10:32:02;;;;;;;8.02;2.67;;;;;;;;;;5045564;28;20385;-67
2023/06/28 10:34:28;;;;;;;7.18;2.50;;;;;;;;;;5044485;28;20032;-67
2023/06/28 10:36:56;;;;;;;6.32;2.70;;;;;;;;;;5043717;28;20063;-67
2023/06/28 10:39:22;;;;;;;9.25;3.15;;;;;;;;;;5040554;28;20048;-67
2023/06/28 10:41:56;;;;;;;6.65;2.83;;;;;;;;;;5046898;28;20041;-66
2023/06/28 10:44:22;;;;;;;8.80;2.95;;;;;;;;;;5044535;28;20063;-66
2023/06/28 10:47:09;;;;;;;6.30;2.92;;;;;;;;;;5047598;28;20049;-67
2023/06/28 10:49:35;;;;;;;6.22;2.53;;;;;;;;;;5045412;28;20030;-67
2023/06/28 10:52:01;;;;;;;3.42;2.10;;;;;;;;;;5043550;28;20044;-67
2023/06/28 10:54:27;;;;;;;6.38;2.53;;;;;;;;;;5049067;28;20037;-66
2023/06/28 10:56:58;;;;;;;5.63;2.80;;;;;;;;;;5052360;28;20029;-66
2023/06/28 10:59:24;;;;;;;8.10;2.88;;;;;;;;;;5052849;28;20025;-66
2023/06/28 11:04:27;;;;;;;7.38;3.13;;;;;;;;;;5098060;27;20578;-67
2023/06/28 11:10:05;;;;;;;7.88;2.70;;;;;;;;;;5056104;28;20432;-66
2023/06/28 11:12:31;;;;;;;6.10;2.83;;;;;;;;;;5038096;28;20033;-66
2023/06/28 11:15:13;;;;;;;10.30;3.10;;;;;;;;;;5028553;28;20039;-67
2023/06/28 11:17:39;;;;;;;8.02;3.40;;;;;;;;;;5026792;28;20030;-66
2023/06/28 11:20:06;;;;;;;8.90;4.55;;;;;;;;;;5027616;28;20065;-66
2023/06/28 11:22:49;;;;;;;7.15;3.75;;;;;;;;;;5027067;28;20029;-66
2023/06/28 11:25:15;;;;;;;4.78;3.00;;;;;;;;;;5028816;28;20022;-66
2023/06/28 11:27:41;;;;;;;8.45;3.92;;;;;;;;;;5032759;28;20480;-66
2023/06/28 11:30:08;;;;;;;10.52;3.20;;;;;;;;;;5034279;28;20155;-67
2023/06/28 11:32:36;;;;;;;7.72;3.42;;;;;;;;;;5035406;28;20039;-67
2023/06/28 11:35:03;;;;;;;7.35;2.97;;;;;;;;;;5033537;28;20079;-66
2023/06/28 11:37:30;;;;;;;5.75;3.30;;;;;;;;;;5017208;28;20040;-66
2023/06/28 11:39:58;;;;;;;7.93;3.63;;;;;;;;;;5026896;28;20150;-66
2023/06/28 11:42:24;;;;;;;11.63;4.05;;;;;;;;;;5031463;28;20079;-66
2023/06/28 11:44:51;;;;;;;7.10;3.15;;;;;;;;;;5031073;28;20528;-66
2023/06/28 11:47:19;;;;;;;6.57;3.50;;;;;;;;;;5035822;28;20057;-66
2023/06/28 11:49:46;;;;;;;8.40;3.47;;;;;;;;;;5033347;28;20029;-66
2023/06/28 11:52:12;;;;;;;5.45;2.80;;;;;;;;;;5029535;28;20109;-66
2023/06/28 11:54:39;;;;;;;5.78;3.30;;;;;;;;;;5030115;28;20033;-66
2023/06/28 11:57:05;;;;;;;6.65;3.95;;;;;;;;;;5031989;28;20018;-66
2023/06/28 11:59:31;;;;;;;6.20;3.63;;;;;;;;;;5033209;28;20136;-66
2023/06/28 12:02:01;;;;;;;6.15;2.97;;;;;;;;;;5027860;28;20112;-67
2023/06/28 12:04:27;;;;;;;7.53;4.13;;;;;;;;;;5033582;28;20514;-67
2023/06/28 12:06:53;;;;;;;5.43;3.28;;;;;;;;;;5030452;28;20081;-67
2023/06/28 12:09:21;;;;;;;4.80;2.83;;;;;;;;;;5028207;28;20041;-67
2023/06/28 12:11:53;;;;;;;6.03;3.30;;;;;;;;;;5029068;28;20040;-67
2023/06/28 12:14:19;;;;;;;6.53;3.70;;;;;;;;;;5021222;28;20029;-67
2023/06/28 12:16:45;;;;;;;6.10;3.90;;;;;;;;;;5019796;28;20028;-67
2023/06/28 12:19:11;;;;;;;8.48;3.90;;;;;;;;;;5013569;28;20033;-67
2023/06/28 12:21:38;;;;;;;6.68;4.25;;;;;;;;;;5008946;28;20096;-66
2023/06/28 12:24:15;;;;;;;7.50;4.80;;;;;;;;;;5004610;28;20060;-66
2023/06/28 12:26:45;;;;;;;6.53;3.70;;;;;;;;;;5020793;28;20528;-66
2023/06/28 12:29:11;;;;;;;7.10;4.45;;;;;;;;;;5010884;28;20038;-66
2023/06/28 12:31:43;;;;;;;9.52;5.05;;;;;;;;;;5002169;28;20117;-66
2023/06/28 12:34:09;;;;;;;8.77;4.80;;;;;;;;;;5006715;28;20142;-66
2023/06/28 12:36:35;;;;;;;8.18;4.97;;;;;;;;;;5006475;28;20109;-66
2023/06/28 12:39:01;;;;;;;9.20;4.90;;;;;;;;;;5004785;28;20171;-66
2023/06/28 12:41:27;;;;;;;10.02;6.00;;;;;;;;;;5011981;28;20081;-66
2023/06/28 12:43:55;;;;;;;10.63;5.78;;;;;;;;;;5022010;28;20108;-66
2023/06/28 12:46:21;;;;;;;11.35;5.97;;;;;;;;;;5023110;28;20033;-66
2023/06/28 12:48:47;;;;;;;9.93;5.50;;;;;;;;;;5017947;28;20030;-67
2023/06/28 12:51:13;;;;;;;10.90;5.78;;;;;;;;;;5009328;28;21723;-67
2023/06/28 12:53:39;;;;;;;9.43;5.38;;;;;;;;;;5011030;28;20038;-66
2023/06/28 12:56:05;;;;;;;9.98;6.32;;;;;;;;;;5005062;28;20057;-66
2023/06/28 12:58:31;;;;;;;14.05;8.13;;;;;;;;;;5026064;28;20096;-65
2023/06/28 13:00:57;;;;;;;11.90;6.65;;;;;;;;;;5004669;28;20134;-67
2023/06/28 13:03:25;;;;;;;14.65;6.80;;;;;;;;;;5015332;28;20021;-66
2023/06/28 13:05:51;;;;;;;11.43;5.97;;;;;;;;;;5016682;28;20483;-66
2023/06/28 13:08:19;;;;;;;11.70;5.75;;;;;;;;;;5012405;28;20185;-66
2023/06/28 13:10:45;;;;;;;10.02;6.40;;;;;;;;;;5015787;28;20026;-67
2023/06/28 13:13:11;;;;;;;11.85;6.63;;;;;;;;;;5012340;28;20033;-67
2023/06/28 13:15:38;;;;;;;18.30;7.88;;;;;;;;;;5011731;28;20470;-67
2023/06/28 13:18:04;;;;;;;13.07;7.72;;;;;;;;;;5003103;28;20091;-67
2023/06/28 13:20:30;;;;;;;14.23;8.10;;;;;;;;;;5014520;28;20598;-67
2023/06/28 13:22:56;;;;;;;12.50;7.88;;;;;;;;;;5019874;28;20124;-67
2023/06/28 13:25:22;;;;;;;14.63;7.30;;;;;;;;;;5022291;28;20025;-67
2023/06/28 13:27:48;;;;;;;13.88;8.18;;;;;;;;;;5026542;28;20124;-67
2023/06/28 13:30:14;;;;;;;13.90;8.57;;;;;;;;;;5025961;28;20483;-68
2023/06/28 13:32:40;;;;;;;15.45;9.40;;;;;;;;;;5027111;28;20494;-67
2023/06/28 13:35:07;;;;;;;18.30;8.98;;;;;;;;;;5028184;28;20030;-67
2023/06/28 13:37:33;;;;;;;16.90;9.40;;;;;;;;;;5031702;28;20021;-68
2023/06/28 13:40:02;;;;;;;16.25;7.90;;;;;;;;;;5014340;28;20105;-67
2023/06/28 13:42:28;;;;;;;16.95;9.00;;;;;;;;;;5015667;28;20430;-67
2023/06/28 13:44:54;;;;;;;12.52;8.82;;;;;;;;;;5025986;28;20029;-67
2023/06/28 13:47:20;;;;;;;14.73;8.77;;;;;;;;;;5021767;28;20037;-67
2023/06/28 13:49:46;;;;;;;15.82;8.40;;;;;;;;;;5013523;28;20372;-67
2023/06/28 13:52:12;;;;;;;14.05;8.20;;;;;;;;;;5009815;28;20470;-67
2023/06/28 13:54:38;;;;;;;10.80;7.65;;;;;;;;;;5016075;28;20030;-68
2023/06/28 13:57:04;;;;;;;10.75;7.40;;;;;;;;;;5015322;28;20038;-67
2023/06/28 13:59:30;;;;;;;11.15;6.50;;;;;;;;;;5006268;28;20038;-67
2023/06/28 14:01:57;;;;;;;13.85;6.72;;;;;;;;;;5011475;28;20044;-67
2023/06/28 14:04:23;;;;;;;9.63;6.43;;;;;;;;;;5014682;28;20026;-67
2023/06/28 14:06:49;;;;;;;13.95;7.50;;;;;;;;;;5008909;28;20041;-67
2023/06/28 14:09:16;;;;;;;12.93;7.47;;;;;;;;;;5019866;28;20050;-67
2023/06/28 14:11:42;;;;;;;11.57;6.55;;;;;;;;;;5005037;28;20031;-67
2023/06/28 14:14:08;;;;;;;16.10;7.68;;;;;;;;;;5003934;28;20046;-67
2023/06/28 14:16:34;;;;;;;12.73;7.82;;;;;;;;;;5000245;28;20030;-65
2023/06/28 14:19:00;;;;;;;11.43;6.95;;;;;;;;;;5004178;28;20407;-66
2023/06/28 14:21:25;;;;;;;13.05;7.85;;;;;;;;;;5014506;28;20165;-67
2023/06/28 14:23:51;;;;;;;11.30;7.65;;;;;;;;;;5006781;28;20033;-66
2023/06/28 14:26:17;;;;;;;16.60;7.63;;;;;;;;;;5017893;28;20048;-66
2023/06/28 14:28:43;;;;;;;14.75;7.32;;;;;;;;;;5004347;28;20121;-66
2023/06/28 14:31:11;;;;;;;14.25;7.82;;;;;;;;;;5007392;28;20464;-66
2023/06/28 14:33:43;;;;;;;12.98;8.10;;;;;;;;;;5013422;28;20076;-66
2023/06/28 14:36:09;;;;;;;13.00;9.18;;;;;;;;;;5005753;28;20026;-66
2023/06/28 14:38:35;;;;;;;14.90;8.98;;;;;;;;;;5019400;28;20112;-66